Flugplatz Lübeck Blankensee

Bericht für EDHL

vom 24.05. um 04:50 UTC

Wind 5 kt aus 60°

Sichtweite 10 km oder mehr

gute Sicht, keine Wolken < 5000 ft, keine CB, keine Wettererscheinungen (CAVOK)

Temperatur 13.0°C

Taupunkt 9.0°C

Luftfeuchtigkeit 77%

Luftdruck 1025 hPa

EDHL 240450Z 06005KT CAVOK 13/09 Q1025
Keine Prognose (TAF) verfügbar.
Impressum